Time;durP1;ratioP1;P1;durP2;ratioP2;P2;SDS_P1;SDS_P2;PMS_P1;PMS_P2;Temp;Humidity;BMP_temperature;BMP_pressure;BME280_temperature;BME280_humidity;BME280_pressure;Samples;Min_cycle;Max_cycle;Signal;HPM_P1;HPM_P2
2024/02/11 00:00:18;;;;;;;39.70;21.17;;;;;;;8.72;100.00;95352.31;5096377;28;20225;-80
2024/02/11 00:02:45;;;;;;;34.70;20.10;;;;;;;8.68;100.00;95358.03;5096317;28;20316;-81
2024/02/11 00:05:11;;;;;;;35.53;19.67;;;;;;;8.64;100.00;95356.75;5096495;28;20213;-80
2024/02/11 00:07:39;;;;;;;36.93;20.80;;;;;;;8.66;100.00;95363.50;5095613;28;20217;-80
2024/02/11 00:10:09;;;;;;;34.10;20.17;;;;;;;8.65;100.00;95366.28;5097434;28;20199;-82
2024/02/11 00:12:36;;;;;;;33.30;19.73;;;;;;;8.61;100.00;95378.09;5096836;28;20238;-80
2024/02/11 00:15:05;;;;;;;33.67;19.67;;;;;;;8.59;100.00;95380.09;5097275;28;20680;-82
2024/02/11 00:17:32;;;;;;;32.50;18.60;;;;;;;8.57;100.00;95364.44;5096888;28;20703;-81
2024/02/11 00:19:59;;;;;;;32.37;18.33;;;;;;;8.57;100.00;95374.16;5097301;28;20228;-81
2024/02/11 00:22:25;;;;;;;35.33;20.03;;;;;;;8.61;100.00;95372.84;5096342;28;20229;-81
2024/02/11 00:24:53;;;;;;;34.97;19.00;;;;;;;8.59;100.00;95364.28;5097512;28;20220;-81
2024/02/11 00:27:20;;;;;;;35.70;19.80;;;;;;;8.57;100.00;95366.28;5096904;28;20209;-81
2024/02/11 00:29:46;;;;;;;32.60;19.87;;;;;;;8.54;100.00;95366.56;5097119;28;20210;-81
2024/02/11 00:32:14;;;;;;;34.60;19.30;;;;;;;8.55;100.00;95378.75;5096857;28;20231;-81
2024/02/11 00:34:40;;;;;;;32.70;18.80;;;;;;;8.56;100.00;95372.53;5097062;28;20213;-81
2024/02/11 00:37:10;;;;;;;32.43;18.60;;;;;;;8.56;100.00;95369.91;5094793;28;20228;-81
2024/02/11 00:39:37;;;;;;;32.80;18.20;;;;;;;8.53;100.00;95378.94;5096843;28;20236;-83
2024/02/11 00:42:04;;;;;;;30.73;17.90;;;;;;;8.56;100.00;95380.41;5097080;28;20232;-81
2024/02/11 00:44:31;;;;;;;31.40;18.50;;;;;;;8.59;100.00;95380.09;5096472;28;20210;-81
2024/02/11 00:46:58;;;;;;;33.00;18.90;;;;;;;8.60;100.00;95381.72;5096916;28;20277;-81
2024/02/11 00:49:26;;;;;;;33.20;17.67;;;;;;;8.59;100.00;95390.63;5096329;28;20212;-81
2024/02/11 00:51:54;;;;;;;31.53;18.67;;;;;;;8.63;100.00;95386.69;5096346;28;20241;-81
2024/02/11 00:54:20;;;;;;;29.83;18.30;;;;;;;8.64;100.00;95383.06;5095764;28;20245;-81
2024/02/11 00:56:54;;;;;;;35.27;17.43;;;;;;;8.63;100.00;95398.03;5095487;28;20663;-81
2024/02/11 00:59:21;;;;;;;31.27;17.43;;;;;;;8.65;100.00;95400.50;5097723;28;20227;-81
2024/02/11 01:01:48;;;;;;;32.37;17.93;;;;;;;8.65;100.00;95395.25;5096326;28;20236;-82
2024/02/11 01:04:15;;;;;;;29.13;16.27;;;;;;;8.65;100.00;95411.88;5098180;28;20209;-82
2024/02/11 01:06:43;;;;;;;27.70;16.50;;;;;;;8.67;100.00;95404.63;5098815;28;20212;-82
2024/02/11 01:09:09;;;;;;;33.27;17.47;;;;;;;8.65;100.00;95409.25;5098711;28;20210;-80
2024/02/11 01:11:38;;;;;;;28.17;17.27;;;;;;;8.65;100.00;95413.66;5096691;28;20252;-80
2024/02/11 01:14:05;;;;;;;30.23;16.90;;;;;;;8.62;100.00;95416.63;5095838;28;20207;-82
2024/02/11 01:16:31;;;;;;;27.20;16.03;;;;;;;8.59;100.00;95414.31;5101253;28;20237;-81
2024/02/11 01:19:00;;;;;;;29.67;17.33;;;;;;;8.58;100.00;95420.56;5114385;28;20220;-80
2024/02/11 01:21:26;;;;;;;30.93;17.57;;;;;;;8.58;100.00;95420.56;5097759;28;20285;-80
2024/02/11 01:23:54;;;;;;;32.60;17.50;;;;;;;8.60;100.00;95418.56;5098139;28;20305;-80
2024/02/11 01:26:20;;;;;;;26.60;16.10;;;;;;;8.61;100.00;95418.44;5098278;28;20205;-80
2024/02/11 01:28:47;;;;;;;32.47;17.03;;;;;;;8.61;100.00;95426.31;5098433;28;20204;-80
2024/02/11 01:31:13;;;;;;;30.23;17.17;;;;;;;8.60;100.00;95418.56;5101256;28;20203;-80
2024/02/11 01:33:40;;;;;;;30.80;17.10;;;;;;;8.60;100.00;95414.16;5101137;28;20219;-80
2024/02/11 01:36:06;;;;;;;29.17;16.87;;;;;;;8.60;100.00;95429.94;5101068;28;20218;-80
2024/02/11 01:38:33;;;;;;;26.80;16.13;;;;;;;8.60;100.00;95423.84;5101319;28;20205;-82
2024/02/11 01:41:01;;;;;;;33.20;18.60;;;;;;;8.60;100.00;95423.84;5101295;28;20239;-80
2024/02/11 01:43:29;;;;;;;35.87;18.67;;;;;;;8.62;100.00;95429.78;5101531;28;20210;-82
2024/02/11 01:45:56;;;;;;;31.37;16.20;;;;;;;8.62;100.00;95427.16;5100719;28;20278;-82
2024/02/11 01:48:23;;;;;;;31.00;17.23;;;;;;;8.62;100.00;95427.16;5100245;28;20214;-81
2024/02/11 01:50:52;;;;;;;31.80;17.77;;;;;;;8.62;100.00;95427.16;5101322;28;20235;-82
2024/02/11 01:53:21;;;;;;;30.27;17.50;;;;;;;8.62;100.00;95419.25;5099241;28;20230;-81
2024/02/11 01:55:49;;;;;;;32.10;17.87;;;;;;;8.64;100.00;95426.00;5100468;28;20206;-81
2024/02/11 01:58:17;;;;;;;32.20;18.13;;;;;;;8.70;100.00;95430.63;5101159;28;20204;-81
2024/02/11 02:00:44;;;;;;;33.33;19.23;;;;;;;8.69;100.00;95423.72;5100351;28;20228;-81
2024/02/11 02:03:12;;;;;;;32.03;17.77;;;;;;;8.71;100.00;95418.28;5100746;28;20227;-81
2024/02/11 02:05:39;;;;;;;37.20;19.50;;;;;;;8.73;100.00;95435.56;5099357;28;20212;-81
2024/02/11 02:08:08;;;;;;;35.60;18.67;;;;;;;8.70;100.00;95437.72;5099540;28;20584;-81
2024/02/11 02:10:35;;;;;;;29.47;17.80;;;;;;;8.66;100.00;95426.69;5099989;28;20224;-81
2024/02/11 02:13:02;;;;;;;30.33;16.83;;;;;;;8.65;100.00;95427.66;5100293;28;20234;-81
2024/02/11 02:15:30;;;;;;;32.47;17.53;;;;;;;8.60;100.00;95423.84;5100238;28;20695;-81
2024/02/11 02:17:56;;;;;;;28.40;16.13;;;;;;;8.55;100.00;95426.13;5099622;28;20208;-81
2024/02/11 02:20:23;;;;;;;30.40;17.80;;;;;;;8.55;100.00;95434.03;5099520;28;20600;-81
2024/02/11 02:22:50;;;;;;;34.63;17.07;;;;;;;8.56;100.00;95433.06;5099765;28;20234;-81
2024/02/11 02:25:17;;;;;;;28.97;16.83;;;;;;;8.59;100.00;95433.56;5099578;28;20204;-81
2024/02/11 02:27:44;;;;;;;28.53;16.33;;;;;;;8.62;100.00;95432.44;5097516;28;20247;-81
2024/02/11 02:30:11;;;;;;;32.47;18.43;;;;;;;8.62;100.00;95435.06;5099512;28;20234;-81
2024/02/11 02:32:38;;;;;;;29.23;16.97;;;;;;;8.64;100.00;95430.44;5097637;28;20231;-82
2024/02/11 02:35:05;;;;;;;30.87;17.83;;;;;;;8.66;100.00;95439.00;5097060;28;20202;-81
2024/02/11 02:37:32;;;;;;;31.03;17.17;;;;;;;8.68;100.00;95437.03;5097163;28;20216;-81
2024/02/11 02:39:59;;;;;;;32.67;18.73;;;;;;;8.72;100.00;95438.38;5097214;28;20239;-81
2024/02/11 02:42:26;;;;;;;32.23;18.07;;;;;;;8.73;100.00;95434.75;5096134;28;20239;-81
2024/02/11 02:44:52;;;;;;;30.97;17.63;;;;;;;8.75;100.00;95443.31;5096135;28;20695;-81
2024/02/11 02:47:19;;;;;;;34.50;19.27;;;;;;;8.74;100.00;95444.28;5096739;28;20216;-81
2024/02/11 02:49:46;;;;;;;31.10;17.87;;;;;;;8.78;100.00;95450.88;5096485;28;20585;-81
2024/02/11 02:52:13;;;;;;;35.93;18.57;;;;;;;8.76;100.00;95444.97;5096242;28;20725;-81
2024/02/11 02:54:43;;;;;;;35.30;18.07;;;;;;;8.77;100.00;95452.72;5096443;28;20211;-81
2024/02/11 02:57:12;;;;;;;31.50;18.27;;;;;;;8.77;100.00;95451.88;5096153;28;20257;-81
2024/02/11 02:59:39;;;;;;;32.90;17.77;;;;;;;8.74;100.00;95445.13;5096570;28;20235;-81
2024/02/11 03:02:05;;;;;;;29.67;17.57;;;;;;;8.77;100.00;95446.63;5095467;28;20233;-81
2024/02/11 03:04:32;;;;;;;31.13;18.27;;;;;;;8.76;100.00;95444.97;5097045;28;20299;-80
2024/02/11 03:06:58;;;;;;;31.87;18.93;;;;;;;8.77;100.00;95452.72;5097349;28;20651;-81
2024/02/11 03:09:25;;;;;;;32.17;18.17;;;;;;;8.80;100.00;95462.06;5096261;28;20207;-81
2024/02/11 03:11:51;;;;;;;34.03;18.57;;;;;;;8.80;100.00;95464.72;5095342;28;20725;-81
2024/02/11 03:14:19;;;;;;;34.17;19.60;;;;;;;8.86;100.00;95467.53;5095666;28;20206;-81
2024/02/11 03:16:46;;;;;;;26.97;15.43;;;;;;;8.86;100.00;95471.97;5095637;28;20210;-81
2024/02/11 03:19:14;;;;;;;15.87;9.40;;;;;;;8.71;100.00;95482.31;5095729;28;20219;-80
2024/02/11 03:21:40;;;;;;;13.33;6.73;;;;;;;8.62;100.00;95482.44;5095495;28;20624;-81
2024/02/11 03:24:07;;;;;;;2.90;2.30;;;;;;;8.44;100.00;95497.50;5097940;28;20216;-81
2024/02/11 03:26:33;;;;;;;1.90;1.20;;;;;;;8.32;100.00;95498.75;5103113;28;20271;-81
2024/02/11 03:29:00;;;;;;;1.57;0.97;;;;;;;8.18;100.00;95504.53;5102168;28;20388;-80
2024/02/11 03:31:28;;;;;;;0.50;0.50;;;;;;;8.07;100.00;95512.66;5101903;28;20604;-80
2024/02/11 03:33:55;;;;;;;0.47;0.47;;;;;;;7.98;100.00;95524.13;5102297;28;20211;-80
2024/02/11 03:36:21;;;;;;;0.47;0.47;;;;;;;7.85;100.00;95532.38;5101450;28;20296;-80
2024/02/11 03:38:48;;;;;;;0.40;0.40;;;;;;;7.79;100.00;95542.69;5101139;28;20203;-80
2024/02/11 03:41:16;;;;;;;0.50;0.47;;;;;;;7.71;100.00;95547.91;5101201;28;20711;-80
2024/02/11 03:43:43;;;;;;;0.57;0.50;;;;;;;7.66;100.00;95558.03;5101640;28;20269;-80
2024/02/11 03:46:09;;;;;;;0.77;0.30;;;;;;;7.61;100.00;95560.28;5101431;28;20224;-81
2024/02/11 03:48:37;;;;;;;0.43;0.43;;;;;;;7.57;100.00;95564.19;5101194;28;20235;-81
2024/02/11 03:51:06;;;;;;;0.30;0.30;;;;;;;7.48;100.00;95584.28;5102324;28;20209;-81
2024/02/11 03:53:33;;;;;;;0.50;0.30;;;;;;;7.43;100.00;95583.09;5101914;28;20210;-81
2024/02/11 03:56:04;;;;;;;1.50;0.30;;;;;;;7.36;100.00;95593.34;5098794;28;20213;-80
2024/02/11 03:58:32;;;;;;;0.23;0.23;;;;;;;7.29;100.00;95599.38;5094527;28;20214;-81
2024/02/11 04:00:59;;;;;;;1.03;0.30;;;;;;;7.23;100.00;95594.72;5094559;28;20334;-81
2024/02/11 04:03:25;;;;;;;0.60;0.40;;;;;;;7.19;100.00;95611.72;5094548;28;20203;-81
2024/02/11 04:05:55;;;;;;;0.30;0.30;;;;;;;7.14;100.00;95608.69;5094426;28;20306;-80
2024/02/11 04:08:21;;;;;;;0.40;0.40;;;;;;;7.08;100.00;95619.78;5094755;28;20681;-81
2024/02/11 04:10:52;;;;;;;0.40;0.40;;;;;;;6.97;100.00;95622.59;5095096;28;20256;-81
2024/02/11 04:13:23;;;;;;;0.70;0.50;;;;;;;6.90;100.00;95626.78;5099075;28;20226;-80
2024/02/11 04:15:51;;;;;;;1.33;0.50;;;;;;;6.87;100.00;95637.59;5100579;28;20195;-80
2024/02/11 04:18:21;;;;;;;0.50;0.50;;;;;;;6.84;100.00;95640.47;5098706;28;20237;-80
2024/02/11 04:20:48;;;;;;;0.50;0.40;;;;;;;6.76;100.00;95636.91;5098725;28;20231;-81
2024/02/11 04:23:16;;;;;;;0.40;0.40;;;;;;;6.74;100.00;95642.31;5099345;28;20230;-81
2024/02/11 04:25:45;;;;;;;0.47;0.40;;;;;;;6.72;100.00;95631.13;5098356;28;20202;-81
2024/02/11 04:28:12;;;;;;;0.50;0.50;;;;;;;6.67;100.00;95643.03;5097466;28;20305;-81
2024/02/11 04:30:42;;;;;;;0.93;0.60;;;;;;;6.63;100.00;95655.63;5096741;28;20202;-81
2024/02/11 04:33:13;;;;;;;0.90;0.70;;;;;;;6.62;100.00;95655.75;5096993;28;20230;-81
2024/02/11 04:35:40;;;;;;;0.60;0.60;;;;;;;6.58;100.00;95657.84;5096906;28;20602;-81
2024/02/11 04:38:12;;;;;;;0.67;0.67;;;;;;;6.53;100.00;95660.03;5095890;28;20211;-81
2024/02/11 04:40:40;;;;;;;1.00;0.80;;;;;;;6.53;100.00;95665.28;5096522;28;20669;-81
2024/02/11 04:43:07;;;;;;;1.00;0.70;;;;;;;6.52;100.00;95674.13;5096383;28;20226;-81
2024/02/11 04:45:37;;;;;;;0.80;0.70;;;;;;;6.53;100.00;95675.78;5096688;28;20218;-81
2024/02/11 04:48:04;;;;;;;0.60;0.60;;;;;;;6.51;100.00;95672.50;5097230;28;20227;-81
2024/02/11 04:50:32;;;;;;;1.00;0.63;;;;;;;6.57;100.00;95674.56;5096901;28;20206;-81
2024/02/11 04:53:02;;;;;;;0.60;0.50;;;;;;;6.53;100.00;95674.97;5100983;28;20233;-81
2024/02/11 04:55:29;;;;;;;0.50;0.50;;;;;;;6.52;100.00;95683.78;5101416;28;20202;-81
2024/02/11 04:57:58;;;;;;;1.90;0.57;;;;;;;6.49;100.00;95684.09;5102013;28;20207;-81
2024/02/11 05:00:25;;;;;;;0.63;0.60;;;;;;;6.45;100.00;95688.78;5101637;28;20234;-81
2024/02/11 05:02:52;;;;;;;0.70;0.70;;;;;;;6.46;100.00;95695.69;5101737;28;20226;-81
2024/02/11 05:05:25;;;;;;;1.30;0.80;;;;;;;6.44;100.00;95697.63;5101022;28;20214;-81
2024/02/11 05:07:52;;;;;;;0.70;0.60;;;;;;;6.45;100.00;95701.06;5100628;28;20572;-81
2024/02/11 05:10:21;;;;;;;0.83;0.70;;;;;;;6.45;100.00;95701.91;5099434;28;20696;-80
2024/02/11 05:12:48;;;;;;;1.47;0.60;;;;;;;6.43;100.00;95714.34;5097421;28;20230;-81
2024/02/11 05:15:19;;;;;;;0.70;0.60;;;;;;;6.44;100.00;95708.13;5097636;28;20674;-81
2024/02/11 05:17:48;;;;;;;0.70;0.63;;;;;;;6.42;100.00;95702.16;5097417;28;20191;-81
2024/02/11 05:20:21;;;;;;;0.73;0.70;;;;;;;6.39;100.00;95705.09;5097258;28;20207;-81
2024/02/11 05:22:48;;;;;;;2.17;0.57;;;;;;;6.35;100.00;95711.56;5098041;28;20787;-81
2024/02/11 05:25:18;;;;;;;0.50;0.50;;;;;;;6.35;100.00;95714.19;5096774;28;20217;-81
2024/02/11 05:27:46;;;;;;;0.87;0.83;;;;;;;6.30;100.00;95718.22;5097366;28;20206;-80
2024/02/11 05:30:14;;;;;;;0.67;0.60;;;;;;;6.27;100.00;95727.19;5097430;28;20293;-81
2024/02/11 05:32:42;;;;;;;1.10;0.47;;;;;;;6.27;100.00;95732.44;5096995;28;20235;-79
2024/02/11 05:35:09;;;;;;;0.50;0.50;;;;;;;6.28;100.00;95734.06;5096459;28;20214;-80
2024/02/11 05:37:36;;;;;;;0.50;0.50;;;;;;;6.25;100.00;95729.13;5096387;28;20202;-80
2024/02/11 05:40:03;;;;;;;0.60;0.60;;;;;;;6.21;100.00;95732.97;5096929;28;20230;-80
2024/02/11 05:42:30;;;;;;;0.60;0.50;;;;;;;6.19;100.00;95740.16;5096561;28;20231;-80
2024/02/11 05:44:57;;;;;;;0.60;0.60;;;;;;;6.17;100.00;95725.53;5096732;28;20211;-80
2024/02/11 05:47:23;;;;;;;0.60;0.53;;;;;;;6.18;100.00;95738.47;5096622;28;20233;-80
2024/02/11 05:49:51;;;;;;;0.40;0.40;;;;;;;6.21;100.00;95732.97;5097018;28;20206;-80
2024/02/11 05:52:18;;;;;;;0.60;0.60;;;;;;;6.28;100.00;95744.56;5096616;28;20244;-82
2024/02/11 05:54:47;;;;;;;0.80;0.60;;;;;;;6.25;100.00;95744.84;5096947;28;20241;-80
2024/02/11 05:57:14;;;;;;;0.40;0.40;;;;;;;6.27;100.00;95750.78;5097178;28;20214;-80
2024/02/11 05:59:41;;;;;;;1.17;0.50;;;;;;;6.28;100.00;95752.44;5096567;28;20643;-80
2024/02/11 06:02:07;;;;;;;0.57;0.57;;;;;;;6.26;100.00;95757.00;5096163;28;20230;-80
2024/02/11 06:04:34;;;;;;;0.63;0.60;;;;;;;6.29;100.00;95761.16;5095641;28;20207;-80
2024/02/11 06:07:04;;;;;;;0.57;0.50;;;;;;;6.30;100.00;95763.59;5097098;28;20236;-80
2024/02/11 06:09:30;;;;;;;0.73;0.67;;;;;;;6.28;100.00;95760.31;5101637;28;20252;-80
2024/02/11 06:11:57;;;;;;;0.60;0.53;;;;;;;6.30;100.00;95768.84;5099780;28;20223;-80
2024/02/11 06:14:24;;;;;;;0.60;0.60;;;;;;;6.33;100.00;95767.75;5100229;28;20207;-81
2024/02/11 06:16:50;;;;;;;0.57;0.57;;;;;;;6.30;100.00;95774.09;5099229;28;20206;-80
2024/02/11 06:19:17;;;;;;;0.70;0.60;;;;;;;6.29;100.00;95776.88;5101355;28;20240;-80
2024/02/11 06:21:44;;;;;;;1.17;0.63;;;;;;;6.27;100.00;95778.78;5101943;28;20237;-80
2024/02/11 06:24:13;;;;;;;0.90;0.60;;;;;;;6.30;100.00;95779.34;5101482;28;20217;-80
2024/02/11 06:26:39;;;;;;;0.60;0.50;;;;;;;6.29;100.00;95782.94;5100409;28;20629;-80
2024/02/11 06:29:06;;;;;;;0.70;0.70;;;;;;;6.30;100.00;95784.59;5102049;28;20209;-80
2024/02/11 06:31:33;;;;;;;0.60;0.60;;;;;;;6.26;100.00;95788.47;5101142;28;20275;-80
2024/02/11 06:34:00;;;;;;;0.50;0.50;;;;;;;6.28;100.00;95788.34;5100463;28;20203;-80
2024/02/11 06:36:28;;;;;;;1.23;0.50;;;;;;;6.23;100.00;95788.72;5100412;28;20222;-80
2024/02/11 06:38:58;;;;;;;0.87;0.70;;;;;;;6.19;100.00;95794.38;5101022;28;20218;-80
2024/02/11 06:41:26;;;;;;;0.70;0.67;;;;;;;6.19;100.00;95792.59;5102497;28;20253;-80
2024/02/11 06:44:01;;;;;;;0.50;0.50;;;;;;;6.18;100.00;95796.16;5102650;28;20225;-80
2024/02/11 06:46:27;;;;;;;1.00;0.63;;;;;;;6.11;100.00;95805.56;5101779;28;20206;-80
2024/02/11 06:48:53;;;;;;;0.67;0.60;;;;;;;6.10;100.00;95803.91;5101235;28;20210;-81
2024/02/11 06:51:21;;;;;;;1.03;0.80;;;;;;;6.10;100.00;95806.50;5100856;28;20237;-81
2024/02/11 06:53:47;;;;;;;0.50;0.50;;;;;;;6.14;100.00;95810.53;5100477;28;20210;-80
2024/02/11 06:56:14;;;;;;;1.10;0.77;;;;;;;6.10;100.00;95810.94;5101572;28;20206;-81
2024/02/11 06:58:41;;;;;;;0.70;0.70;;;;;;;6.07;100.00;95812.03;5101570;28;20231;-80
2024/02/11 07:01:09;;;;;;;0.70;0.70;;;;;;;6.07;100.00;95819.06;5101063;28;20233;-81
2024/02/11 07:03:37;;;;;;;0.80;0.80;;;;;;;6.08;100.00;95821.56;5101507;28;20259;-80
2024/02/11 07:06:05;;;;;;;0.90;0.70;;;;;;;6.09;100.00;95823.22;5101152;28;20237;-80
2024/02/11 07:08:32;;;;;;;1.23;1.00;;;;;;;6.05;100.00;95826.25;5101619;28;20226;-81
2024/02/11 07:10:58;;;;;;;1.00;0.90;;;;;;;6.04;100.00;95830.66;5100727;28;20203;-80
2024/02/11 07:13:25;;;;;;;1.10;1.00;;;;;;;6.04;100.00;95833.28;5101547;28;20210;-82
2024/02/11 07:15:53;;;;;;;1.33;1.00;;;;;;;6.03;100.00;95836.88;5101137;28;20707;-81
2024/02/11 07:18:23;;;;;;;2.00;1.60;;;;;;;6.05;100.00;95836.75;5101516;28;20228;-81
2024/02/11 07:20:51;;;;;;;1.20;1.07;;;;;;;6.04;100.00;95841.13;5100738;28;20210;-81
2024/02/11 07:23:19;;;;;;;2.10;1.47;;;;;;;5.98;100.00;95852.16;5100253;28;20230;-81
2024/02/11 07:25:47;;;;;;;1.93;1.53;;;;;;;5.98;100.00;95852.16;5100699;28;20296;-81
2024/02/11 07:28:13;;;;;;;1.30;1.20;;;;;;;6.01;100.00;95857.16;5100094;28;20592;-81
2024/02/11 07:30:42;;;;;;;1.30;1.20;;;;;;;6.04;100.00;95856.88;5100738;28;20220;-81
2024/02/11 07:33:10;;;;;;;1.20;1.10;;;;;;;6.03;100.00;95859.63;5098194;28;20310;-81
2024/02/11 07:35:37;;;;;;;1.37;1.27;;;;;;;6.03;100.00;95865.69;5100034;28;20296;-79
2024/02/11 07:38:05;;;;;;;2.70;2.50;;;;;;;6.05;100.00;95873.44;5099461;28;20206;-80
2024/02/11 07:40:32;;;;;;;1.27;1.10;;;;;;;6.04;100.00;95869.97;5099319;28;20221;-80
2024/02/11 07:43:01;;;;;;;1.40;1.30;;;;;;;6.04;100.00;95872.59;5097700;28;20638;-80
2024/02/11 07:45:27;;;;;;;1.30;1.20;;;;;;;6.11;100.00;95878.97;5094497;28;20696;-78
2024/02/11 07:47:54;;;;;;;3.17;1.50;;;;;;;6.14;100.00;95878.72;5094954;28;20213;-81
2024/02/11 07:50:22;;;;;;;2.40;1.70;;;;;;;6.14;100.00;95883.97;5094825;28;20251;-79
2024/02/11 07:52:48;;;;;;;2.13;1.10;;;;;;;6.18;100.00;95885.31;5094401;28;20709;-80
2024/02/11 07:55:15;;;;;;;2.37;1.30;;;;;;;6.18;100.00;95885.31;5094760;28;20206;-80
2024/02/11 07:57:42;;;;;;;1.77;1.47;;;;;;;6.21;100.00;95885.06;5094957;28;20221;-80
2024/02/11 08:00:10;;;;;;;1.63;1.53;;;;;;;6.19;100.00;95894.03;5095489;28;20206;-80
2024/02/11 08:02:36;;;;;;;1.90;1.20;;;;;;;6.24;100.00;95895.28;5095271;28;20238;-80
2024/02/11 08:05:03;;;;;;;1.47;1.37;;;;;;;6.24;100.00;95895.28;5094856;28;20213;-80
2024/02/11 08:07:31;;;;;;;1.40;1.30;;;;;;;6.30;100.00;95894.75;5094588;28;20317;-80
2024/02/11 08:09:57;;;;;;;2.53;1.53;;;;;;;6.32;100.00;95897.25;5095148;28;20214;-80
2024/02/11 08:12:24;;;;;;;1.80;1.50;;;;;;;6.32;100.00;95887.59;5096454;28;20229;-80
2024/02/11 08:14:50;;;;;;;2.50;1.67;;;;;;;6.39;100.00;95893.13;5095874;28;20212;-79
2024/02/11 08:17:17;;;;;;;1.70;1.30;;;;;;;6.44;100.00;95901.41;5096282;28;20220;-80
2024/02/11 08:19:45;;;;;;;2.93;1.80;;;;;;;6.45;100.00;95901.28;5094643;28;20216;-80
2024/02/11 08:22:11;;;;;;;2.90;1.60;;;;;;;6.47;100.00;95904.59;5093831;28;20605;-79
2024/02/11 08:24:39;;;;;;;3.40;1.90;;;;;;;6.47;100.00;95909.03;5097271;28;20293;-80
2024/02/11 08:27:08;;;;;;;1.90;1.60;;;;;;;6.49;100.00;95909.72;5099128;28;20593;-79
2024/02/11 08:29:35;;;;;;;2.33;1.90;;;;;;;6.51;100.00;95913.03;5102343;28;20256;-79
2024/02/11 08:32:02;;;;;;;5.43;3.27;;;;;;;6.53;100.00;95913.75;5099467;28;20256;-79
2024/02/11 08:34:29;;;;;;;4.40;3.00;;;;;;;6.56;100.00;95914.28;5096763;28;20676;-78
2024/02/11 08:36:56;;;;;;;4.20;2.10;;;;;;;6.57;100.00;95920.34;5100804;28;20248;-80
2024/02/11 08:39:25;;;;;;;3.83;2.23;;;;;;;6.63;100.00;95925.91;5099564;28;20215;-78
2024/02/11 08:41:53;;;;;;;4.53;2.60;;;;;;;6.72;100.00;95929.50;5100224;28;20231;-78
2024/02/11 08:44:20;;;;;;;4.93;3.00;;;;;;;6.79;100.00;95931.44;5100950;28;20198;-79
2024/02/11 08:46:47;;;;;;;3.23;2.40;;;;;;;6.94;100.00;95937.13;5098162;28;20288;-78
2024/02/11 08:49:14;;;;;;;4.63;2.40;;;;;;;7.05;100.00;95937.84;5101855;28;20275;-83
2024/02/11 08:51:41;;;;;;;5.70;2.97;;;;;;;7.15;100.00;95929.97;5105774;28;20238;-82
2024/02/11 08:54:07;;;;;;;5.23;2.70;;;;;;;7.12;100.00;95941.56;5101387;28;20214;-80
2024/02/11 08:56:34;;;;;;;5.27;2.80;;;;;;;7.17;100.00;95938.53;5097147;28;20219;-79
2024/02/11 08:59:04;;;;;;;6.50;3.50;;;;;;;7.16;100.00;95942.97;5096780;28;20526;-78
2024/02/11 09:01:30;;;;;;;5.50;3.63;;;;;;;7.18;100.00;95940.16;5097715;28;20238;-78
2024/02/11 09:03:59;;;;;;;5.77;3.50;;;;;;;7.20;100.00;95944.31;5097796;28;20213;-80
2024/02/11 09:06:28;;;;;;;5.17;3.57;;;;;;;7.23;100.00;95944.06;5097082;28;20901;-78
2024/02/11 09:08:55;;;;;;;6.70;3.43;;;;;;;7.28;100.00;95948.91;5094863;28;20265;-79
2024/02/11 09:11:20;;;;;;;5.60;3.30;;;;;;;7.29;100.00;95954.00;5095521;28;20245;-78
2024/02/11 09:13:47;;;;;;;4.93;3.40;;;;;;;7.33;100.00;95961.47;5094897;28;20207;-79
2024/02/11 09:16:19;;;;;;;5.40;3.17;;;;;;;7.46;100.00;95955.91;5095083;28;20210;-78
2024/02/11 09:18:45;;;;;;;7.50;3.77;;;;;;;7.55;100.00;95962.97;5095377;28;20203;-79
2024/02/11 09:21:12;;;;;;;5.30;3.47;;;;;;;7.65;100.00;95961.19;5095174;28;20215;-81
2024/02/11 09:23:38;;;;;;;8.27;3.90;;;;;;;7.68;100.00;95959.09;5095458;28;20555;-78
2024/02/11 09:26:05;;;;;;;5.47;3.67;;;;;;;7.69;100.00;95962.53;5095731;28;20219;-78
2024/02/11 09:28:32;;;;;;;20.33;8.90;;;;;;;7.72;100.00;95967.53;5096067;28;20203;-78
2024/02/11 09:30:58;;;;;;;35.63;13.33;;;;;;;7.74;100.00;95970.84;5100097;28;20562;-79
2024/02/11 09:33:26;;;;;;;31.93;11.33;;;;;;;7.76;100.00;95969.72;5099671;28;20319;-79
2024/02/11 09:35:54;;;;;;;9.07;5.00;;;;;;;7.74;100.00;95976.09;5098398;28;20675;-81
2024/02/11 09:38:21;;;;;;;9.90;5.00;;;;;;;7.73;100.00;95970.00;5097499;28;20270;-78
2024/02/11 09:40:48;;;;;;;6.90;4.63;;;;;;;7.72;100.00;95970.97;5098338;28;20215;-78
2024/02/11 09:43:16;;;;;;;5.77;3.90;;;;;;;7.79;100.00;95973.88;5097879;28;20234;-79
2024/02/11 09:45:44;;;;;;;6.47;3.30;;;;;;;7.76;100.00;95984.66;5097367;28;20247;-78
2024/02/11 09:48:12;;;;;;;5.87;3.70;;;;;;;7.74;100.00;95982.19;5097984;28;20218;-81
2024/02/11 09:50:42;;;;;;;5.40;3.67;;;;;;;7.79;100.00;95979.94;5099507;28;20213;-82
2024/02/11 09:53:11;;;;;;;7.93;3.60;;;;;;;7.80;100.00;95981.63;5106590;28;20309;-79
2024/02/11 09:55:41;;;;;;;5.17;3.43;;;;;;;7.84;100.00;95982.16;5101167;28;20274;-78
2024/02/11 09:58:07;;;;;;;7.73;3.30;;;;;;;7.86;100.00;95983.69;5096739;28;20207;-81
2024/02/11 10:00:34;;;;;;;8.87;3.97;;;;;;;7.91;100.00;95984.06;5096687;28;20204;-79
2024/02/11 10:03:02;;;;;;;4.93;3.00;;;;;;;7.97;100.00;95985.31;5094662;28;20684;-79
2024/02/11 10:05:33;;;;;;;5.23;3.23;;;;;;;8.03;100.00;95984.75;5095176;28;20208;-78
2024/02/11 10:08:05;;;;;;;8.10;3.63;;;;;;;8.06;100.00;95992.34;5093671;28;20662;-79
2024/02/11 10:10:32;;;;;;;6.83;3.70;;;;;;;8.15;100.00;95992.31;5094066;28;20204;-78
2024/02/11 10:13:00;;;;;;;4.43;3.13;;;;;;;8.23;100.00;95994.28;5093749;28;20318;-79
2024/02/11 10:15:27;;;;;;;8.17;3.67;;;;;;;8.37;100.00;95991.16;5094054;28;20211;-79
2024/02/11 10:17:53;;;;;;;4.40;2.93;;;;;;;8.38;100.00;95995.47;5094122;28;20574;-79
2024/02/11 10:20:22;;;;;;;6.57;3.37;;;;;;;8.40;100.00;95998.78;5093843;28;20225;-79
2024/02/11 10:22:49;;;;;;;6.87;3.03;;;;;;;8.41;100.00;96009.19;5093838;28;20232;-79
2024/02/11 10:25:18;;;;;;;5.70;3.50;;;;;;;8.36;100.00;96011.41;5093813;28;20210;-79
2024/02/11 10:27:45;;;;;;;6.53;3.60;;;;;;;8.34;100.00;96008.06;5094321;28;20641;-79
2024/02/11 10:30:13;;;;;;;5.00;3.27;;;;;;;8.39;100.00;96013.75;5093974;28;20210;-80
2024/02/11 10:32:39;;;;;;;3.30;2.80;;;;;;;8.36;100.00;96013.19;5093925;28;20604;-79
2024/02/11 10:35:08;;;;;;;6.07;3.63;;;;;;;8.41;100.00;96018.88;5093692;28;20272;-79
2024/02/11 10:37:38;;;;;;;4.83;3.07;;;;;;;8.42;100.00;96015.25;5093752;28;20260;-80
2024/02/11 10:40:08;;;;;;;4.13;2.67;;;;;;;8.42;100.00;96017.88;5093793;28;20306;-79
2024/02/11 10:42:36;;;;;;;3.90;3.00;;;;;;;8.47;100.00;96018.28;5093318;28;20240;-79
2024/02/11 10:45:03;;;;;;;4.50;3.20;;;;;;;8.49;100.00;96021.59;5093486;28;20219;-80
2024/02/11 10:47:30;;;;;;;4.70;2.87;;;;;;;8.57;100.00;96024.34;5093279;28;20210;-80
2024/02/11 10:49:56;;;;;;;4.33;2.90;;;;;;;8.51;100.00;96015.22;5092819;28;20203;-79
2024/02/11 10:52:27;;;;;;;5.93;2.60;;;;;;;8.58;100.00;96026.81;5093343;28;20236;-79
2024/02/11 10:54:59;;;;;;;3.50;2.70;;;;;;;8.63;100.00;96024.59;5094020;28;20362;-79
2024/02/11 10:57:31;;;;;;;4.83;3.23;;;;;;;8.67;100.00;96031.25;5093763;28;20231;-79
2024/02/11 11:00:01;;;;;;;3.87;2.83;;;;;;;8.73;100.00;96019.28;5093487;28;20611;-79
2024/02/11 11:02:34;;;;;;;4.20;2.90;;;;;;;8.73;100.00;96017.50;5093660;28;20318;-81
2024/02/11 11:05:04;;;;;;;3.97;2.17;;;;;;;8.80;100.00;96021.19;5095240;28;20581;-79
2024/02/11 11:07:35;;;;;;;12.50;6.10;;;;;;;8.81;100.00;96016.78;5092578;28;20203;-77
2024/02/11 11:10:02;;;;;;;6.10;3.57;;;;;;;8.78;100.00;96027.56;5091902;28;20211;-76
2024/02/11 11:12:29;;;;;;;6.53;2.97;;;;;;;8.75;100.00;96031.34;5091785;28;20318;-77
2024/02/11 11:14:57;;;;;;;3.70;2.40;;;;;;;8.79;100.00;96023.97;5092938;28;20207;-80
2024/02/11 11:17:25;;;;;;;5.00;2.73;;;;;;;8.75;100.00;96023.44;5093480;28;20221;-80
2024/02/11 11:19:52;;;;;;;3.93;2.43;;;;;;;8.78;100.00;96023.16;5094884;28;20217;-78
2024/02/11 11:22:26;;;;;;;3.73;2.27;;;;;;;8.89;100.00;96027.38;5093504;28;20233;-77
2024/02/11 11:24:53;;;;;;;2.97;2.20;;;;;;;8.98;100.00;96013.31;5093168;28;20212;-78
2024/02/11 11:27:21;;;;;;;3.67;2.53;;;;;;;9.06;100.00;96026.59;5093294;28;20209;-78
2024/02/11 11:29:48;;;;;;;4.73;2.50;;;;;;;9.18;100.00;96014.88;5092604;28;20547;-80